Flight Track Log - Related Links

Times and Time Zones

All times are in EDT time to prevent confusion due to time zone crossing. See the N66518 flight status page for this flight to view local times or setup timezone preferences in your user account.

Time Position Orientation Groundspeed Altitude Reporting Facility
EDT Latitude Longitude Course Direction KTS MPH feet Rate Location/Type
Fri 10:19:41 AM 35.8878 -78.7250 192° South 114 131 1,900  Level Washington Center
Fri 10:20:35 AM 35.8781 -78.6914 110° East 133 153 2,500 730 Climbing Washington Center
Fri 10:21:36 AM 35.8494 -78.6644 143° Southeast 146 168 3,300 689 Climbing Washington Center
Fri 10:22:37 AM 35.8081 -78.6553 170° South 138 159 3,900 563 Climbing Washington Center
Fri 10:23:44 AM 35.7628 -78.6356 161° South 168 193 4,500 656 Climbing Washington Center
Fri 10:24:45 AM 35.7208 -78.6364 181° South 158 182 5,300 828 Climbing Washington Center
Fri 10:25:00 AM 35.6045 -78.8906 192° South  Level Estimated
Fri 10:25:40 AM 35.6831 -78.6531 200° South 149 171 6,100  Level Washington Center
Fri 10:26:41 AM 35.6453 -78.6617 190° South 146 168 6,900 500 Climbing Washington Center
Fri 10:33:16 AM 35.3758 -78.7456 184° South 168 193 9,900 273 Climbing Washington Center
Fri 10:37:40 AM 35.1675 -78.8164 14° North 176 203 9,900  Level Washington Center
Fri 10:40:54 AM 35.0372 -78.9253 210° Southwest 177 204 9,900  Level Washington Center
Fri 10:48:30 AM 34.7272 -79.1778 208° Southwest 176 203 9,900  Level Washington Center
Fri 10:49:00 AM 34.6981 -79.1491 208° Southwest  Level FlightAware
Fri 10:50:00 AM 34.6562 -79.1767 208° Southwest  Level FlightAware
Fri 10:50:00 AM 34.6590 -79.2033 197° South  Level Estimated
Fri 10:51:00 AM 34.6143 -79.2041 208° Southwest  Level FlightAware
Fri 10:52:00 AM 34.5724 -79.2316 208° Southwest  Level FlightAware
Fri 10:53:00 AM 34.5305 -79.2590 208° Southwest  Level FlightAware
Fri 10:54:00 AM 34.4885 -79.2864 208° Southwest  Level FlightAware
Fri 10:57:00 AM 34.3403 -79.3220 197° South  Level Estimated
Fri 10:58:00 AM 34.3033 -79.3583 219° Southwest  Level FlightAware
Fri 10:59:00 AM 34.2664 -79.3946 219° Southwest  Level FlightAware
Fri 11:00:00 AM 34.2294 -79.4309 219° Southwest  Level FlightAware
Fri 11:01:00 AM 34.1924 -79.4671 219° Southwest  Level FlightAware
Fri 11:02:00 AM 34.1554 -79.5033 219° Southwest  Level FlightAware
Fri 11:03:00 AM 34.1184 -79.5395 219° Southwest  Level FlightAware
Fri 11:04:00 AM 34.0813 -79.5757 219° Southwest  Level FlightAware
Fri 11:05:00 AM 34.0443 -79.6118 219° Southwest  Level FlightAware
Fri 11:06:00 AM 34.0072 -79.6479 219° Southwest  Level FlightAware
Fri 11:07:00 AM 33.9702 -79.6839 219° Southwest  Level FlightAware
Fri 11:08:00 AM 33.9331 -79.7199 219° Southwest  Level FlightAware
Fri 11:09:00 AM 33.8960 -79.7559 219° Southwest  Level FlightAware
Fri 11:10:00 AM 33.8589 -79.7919 219° Southwest  Level FlightAware
Fri 11:11:00 AM 33.8207 -79.8293 220° Southwest  Level FlightAware
Fri 11:12:00 AM 33.7831 -79.8643 215° Southwest  Level FlightAware
Fri 11:13:00 AM 33.7442 -79.8973 215° Southwest  Level FlightAware
Fri 11:14:00 AM 33.7052 -79.9303 215° Southwest  Level FlightAware
Fri 11:15:00 AM 33.6663 -79.9633 215° Southwest  Level FlightAware
Fri 11:16:00 AM 33.6274 -79.9962 215° Southwest  Level FlightAware
Fri 11:17:00 AM 33.5884 -80.0291 215° Southwest  Level FlightAware
Fri 11:18:00 AM 33.5495 -80.0620 215° Southwest  Level FlightAware
Fri 11:19:00 AM 33.5106 -80.0950 215° Southwest  Level FlightAware
Fri 11:20:00 AM 33.4717 -80.1279 215° Southwest  Level FlightAware
Fri 11:21:00 AM 33.4328 -80.1608 215° Southwest  Level FlightAware
Fri 11:22:00 AM 33.3939 -80.1937 215° Southwest  Level FlightAware
Fri 11:23:00 AM 33.3548 -80.2262 214° Southwest  Level FlightAware
Fri 11:24:00 AM 33.3153 -80.2580 214° Southwest  Level FlightAware
Fri 11:25:00 AM 33.2758 -80.2898 214° Southwest  Level FlightAware
Fri 11:26:00 AM 33.2363 -80.3215 214° Southwest  Level FlightAware
Fri 11:27:00 AM 33.1967 -80.3532 214° Southwest  Level FlightAware
Fri 11:28:00 AM 33.1572 -80.3849 214° Southwest  Level FlightAware
Fri 11:29:00 AM 33.1176 -80.4166 214° Southwest  Level FlightAware
Fri 11:30:00 AM 33.0781 -80.4482 214° Southwest  Level FlightAware
Fri 11:31:00 AM 33.0385 -80.4798 214° Southwest  Level FlightAware
Fri 11:32:00 AM 32.9989 -80.5114 214° Southwest  Level FlightAware
Fri 11:33:00 AM 32.9593 -80.5430 214° Southwest  Level FlightAware
Fri 11:34:00 AM 32.9197 -80.5745 214° Southwest  Level FlightAware
Fri 11:35:00 AM 32.8801 -80.6060 214° Southwest  Level FlightAware
Fri 11:36:00 AM 32.8405 -80.6373 214° Southwest  Level FlightAware
Fri 11:37:00 AM 32.8008 -80.6686 213° Southwest  Level FlightAware
Fri 11:38:00 AM 32.7610 -80.6998 213° Southwest  Level FlightAware
Fri 11:39:00 AM 32.7213 -80.7310 213° Southwest  Level FlightAware
Fri 11:40:00 AM 32.6816 -80.7622 213° Southwest  Level FlightAware
Fri 11:41:00 AM 32.6418 -80.7933 213° Southwest  Level FlightAware
Fri 11:42:00 AM 32.6019 -80.8242 213° Southwest  Level FlightAware
Fri 11:43:00 AM 32.5620 -80.8550 213° Southwest  Level FlightAware
Fri 11:44:00 AM 32.5221 -80.8857 213° Southwest  Level FlightAware
Fri 11:45:00 AM 32.4821 -80.9164 213° Southwest  Level FlightAware
Fri 11:46:00 AM 32.4422 -80.9471 213° Southwest  Level FlightAware
Fri 11:47:00 AM 32.4022 -80.9778 213° Southwest  Level FlightAware
Fri 11:48:00 AM 32.3622 -81.0084 213° Southwest  Level FlightAware
Fri 11:49:00 AM 32.3222 -81.0390 213° Southwest  Level FlightAware
Fri 11:50:00 AM 32.2823 -81.0696 213° Southwest  Level FlightAware
Fri 11:51:00 AM 32.2359 -81.0730 184° South  Level Estimated
Fri 11:52:00 AM 32.1896 -81.0764 184° South  Level Estimated
Fri 11:53:00 AM 32.1432 -81.0798 184° South  Level Estimated
Fri 11:54:00 AM 32.0969 -81.0832 184° South  Level Estimated
Fri 11:55:00 AM 32.0505 -81.0866 184° South  Level Estimated
Fri 11:56:00 AM 32.0042 -81.0900 184° South  Level Estimated
Fri 11:57:00 AM 31.9578 -81.0933 184° South  Level Estimated
Fri 11:58:00 AM 31.9114 -81.0967 184° South  Level Estimated
Fri 11:59:00 AM 31.8651 -81.1001 184° South  Level Estimated
Fri 11:59:10 AM 31.6525 -80.9425 169° South 178 205 9,900  Level Jacksonville Center
Fri 12:00:00 PM 31.8187 -81.1034 184° South  Level Estimated
Fri 12:00:10 PM 31.6153 -80.9581 200° South 178 205 9,900  Level Jacksonville Center
Fri 12:01:00 PM 31.7724 -81.1068 184° South  Level Estimated
Fri 12:01:09 PM 31.5694 -80.9761 199° South 178 205 9,900  Level Jacksonville Center
Fri 12:02:00 PM 31.7260 -81.1102 184° South  Level Estimated
Fri 12:02:10 PM 31.5197 -81.0014 203° Southwest 178 205 9,900  Level Jacksonville Center
Fri 12:03:00 PM 31.6804 -81.1002 169° South  Level FlightAware
Fri 12:03:09 PM 31.4742 -81.0217 201° Southwest 178 205 9,900  Level Jacksonville Center
Fri 12:04:00 PM 31.6347 -81.0902 169° South  Level FlightAware
Fri 12:04:09 PM 31.4264 -81.0422 200° South 178 205 9,900  Level Jacksonville Center
Fri 12:05:09 PM 31.3850 -81.0625 203° Southwest 178 205 9,900  Level Jacksonville Center
Fri 12:06:09 PM 31.3372 -81.0831 200° South 188 216 9,900  Level Jacksonville Center
Fri 12:07:10 PM 31.2853 -81.1058 201° Southwest 188 216 9,900  Level Jacksonville Center
Fri 12:08:10 PM 31.2397 -81.1261 201° Southwest 188 216 9,900  Level Jacksonville Center
Fri 12:09:10 PM 31.1919 -81.1464 200° South 188 216 9,900  Level Jacksonville Center
Fri 12:10:10 PM 31.1439 -81.1472 181° South 193 222 9,900  Level Jacksonville Center
Fri 12:11:10 PM 31.0856 -81.1411 175° South 193 222 9,900  Level Jacksonville Center
Fri 12:12:10 PM 31.0250 -81.1447 183° South 198 228 9,900  Level Jacksonville Center
Fri 12:13:09 PM 30.9728 -81.1433 179° South 198 228 9,900 50 Level Jacksonville Center
Fri 12:14:10 PM 30.9183 -81.1417 178° South 198 228 10,000  Climbing Jacksonville Center
Fri 12:15:10 PM 30.8642 -81.1403 179° South 206 237 9,900 -62 Descending Jacksonville Center
Fri 12:15:47 PM 30.8267 -81.1411 181° South 197 227 9,900  Level Jacksonville Center
Fri 12:16:10 PM 30.8097 -81.1389 174° South 201 231 9,900  Level Jacksonville Center
Fri 12:16:24 PM 30.7931 -81.1392 181° South 197 227 9,900  Level Jacksonville Center
Fri 12:17:10 PM 30.7514 -81.1375 178° South 201 231 9,900  Level Jacksonville Center
Fri 12:17:25 PM 30.7367 -81.1403 189° South 200 230 9,900  Level Jacksonville Center
Fri 12:18:10 PM 30.6969 -81.1361 175° South 201 231 9,900  Level Jacksonville Center
Fri 12:18:26 PM 30.6803 -81.1367 182° South 199 229 9,900  Level Jacksonville Center
Fri 12:19:10 PM 30.6447 -81.1347 177° South 195 224 9,900  Level Jacksonville Center
Fri 12:19:21 PM 30.6281 -81.1350 181° South 200 230 9,900  Level Jacksonville Center
Fri 12:20:10 PM 30.5883 -81.1333 178° South 195 224 9,900  Level Jacksonville Center
Fri 12:20:22 PM 30.5739 -81.1336 181° South 199 229 9,900  Level Jacksonville Center
Fri 12:21:10 PM 30.5300 -81.1344 181° South 200 230 9,900  Level Jacksonville Center
Fri 12:21:23 PM 30.5197 -81.1369 192° South 198 228 9,900  Level Jacksonville Center
Fri 12:22:09 PM 30.4758 -81.1356 178° South 200 230 9,900  Level Jacksonville Center
Fri 12:22:37 PM 30.4506 -81.1336 176° South 200 230 9,900  Level Jacksonville Center
Fri 12:23:09 PM 30.4192 -81.1317 177° South 200 230 9,900  Level Jacksonville Center
Fri 12:23:32 PM 30.3983 -81.1344 187° South 201 231 9,900  Level Jacksonville Center
Fri 12:24:10 PM 30.3631 -81.1328 178° South 200 230 9,900  Level Jacksonville Center
Fri 12:24:33 PM 30.3442 -81.1331 181° South 199 229 9,900  Level Jacksonville Center
Fri 12:25:10 PM 30.3086 -81.1314 178° South 200 230 9,900  Level Jacksonville Center
Fri 12:25:40 PM 30.2772 -81.1319 181° South 199 229 9,900  Level Jacksonville Center
Fri 12:26:41 PM 30.2231 -81.1306 179° South 196 226 9,900  Level Jacksonville Center
Fri 12:27:36 PM 30.1708 -81.1292 179° South 201 231 9,900  Level Jacksonville Center
Fri 12:28:37 PM 30.1144 -81.1253 177° South 201 231 9,900  Level Jacksonville Center
Fri 12:29:38 PM 30.0581 -81.1286 183° South 200 230 9,900 59 Level Jacksonville Center
Fri 12:30:19 PM 30.0225 -81.1269 178° South 198 228 10,000 71 Climbing Jacksonville Center
Fri 12:31:02 PM 29.9808 -81.1253 178° South 197 227 10,000  Level Jacksonville Center
Fri 12:32:03 PM 29.9244 -81.1264 181° South 198 228 10,000  Level Jacksonville Center
Fri 12:33:10 PM 29.8658 -81.1250 179° South 198 228 10,000  Level Jacksonville Center
Fri 12:34:05 PM 29.8136 -81.1236 179° South 198 228 10,000  Level Jacksonville Center
Fri 12:35:06 PM 29.7594 -81.1244 181° South 198 228 10,000 -49 Level Jacksonville Center
Fri 12:36:07 PM 29.7008 -81.1208 177° South 198 228 9,900 -295 Descending Jacksonville Center
Fri 12:37:08 PM 29.6425 -81.1219 181° South 209 241 9,400 -689 Descending Jacksonville Center
Fri 12:38:09 PM 29.5778 -81.1183 177° South 222 255 8,500 -738 Descending Jacksonville Center
Fri 12:39:10 PM 29.5172 -81.1194 181° South 224 258 7,900 -295 Descending Jacksonville Center
Fri 12:40:11 PM 29.4589 -81.1181 179° South 196 226 7,900 -295 Level Jacksonville Center
Fri 12:41:12 PM 29.4025 -81.1167 179° South 199 229 7,300 -639 Descending Jacksonville Center
Fri 12:42:13 PM 29.3439 -81.1178 181° South 216 249 6,600 -776 Descending Jacksonville Center
Fri 12:43:08 PM 29.2917 -81.1164 179° South 206 237 5,800 -738 Descending Jacksonville Center
Fri 12:44:15 PM 29.2336 -81.1339 195° South 190 219 5,100 -803 Descending Jacksonville Center
Fri 12:45:15 PM 29.1794 -81.1539 198° South 196 226 4,100 -365 Descending Jacksonville Center
Fri 12:47:32 PM 29.0833 -81.1333 169° South 170 196 3,900 -59 Descending Orlando TRACON
Fri 12:48:39 PM 29.0167 -81.1667 204° Southwest 171 197 3,900  Level Orlando TRACON
Fri 12:49:39 PM 28.9833 -81.1833 204° Southwest 168 193 3,900  Level Orlando TRACON
Fri 12:50:33 PM 28.9333 -81.1833 180° South 164 189 3,900 52 Level Orlando TRACON
Fri 12:51:34 PM 28.9000 -81.2000 204° Southwest 170 196 4,000 50 Climbing Orlando TRACON
Fri 12:52:33 PM 28.8667 -81.1667 139° Southeast 164 189 4,000 -316 Level Orlando TRACON
Fri 12:53:28 PM 28.8167 -81.1500 164° South 181 208 3,400 -520 Descending Orlando TRACON
Fri 12:54:40 PM 28.7667 -81.1667 196° South 180 207 2,900 -182 Descending Orlando TRACON
Fri 12:55:40 PM 28.7167 -81.1500 164° South 147 169 3,000  Climbing Orlando TRACON
Fri 12:56:40 PM 28.6833 -81.1167 139° Southeast 149 171 2,900  Descending Orlando TRACON
Fri 12:57:34 PM 28.6500 -81.1000 156° South 146 168 3,000 55 Climbing Orlando TRACON
Fri 12:58:29 PM 28.6333 -81.1000 180° South 149 171 3,000 -52 Level Orlando TRACON
Fri 12:59:29 PM 28.6167 -81.1500 249° West 119 137 2,900 -150 Descending Orlando TRACON
Fri 01:00:29 PM 28.6000 -81.1833 240° Southwest 115 132 2,700 -350 Descending Orlando TRACON
Fri 01:01:29 PM 28.5833 -81.2167 240° Southwest 112 129 2,200 -545 Descending Orlando TRACON
Fri 01:02:30 PM 28.5833 -81.2500 270° West 110 127 1,600 -614 Descending Orlando TRACON
Fri 01:03:36 PM 28.5667 -81.2833 240° Southwest 108 124 900 -571 Descending Orlando TRACON
Fri 01:04:36 PM 28.5500 -81.3000 221° Southwest 100 115 400 -500 Descending Orlando TRACON
Fri 01:06:00 PM 28.5333 -81.3167 230° Southwest  Level FlightAware
Fri 01:13:00 PM 28.5455 -81.3329 310° West  Level Estimated
Fri 01:14:00 PM 28.5455 -81.3329 North  Level Estimated
Fri 01:15:00 PM 28.5455 -81.3329 North  Level Estimated

Login

Don't have an account? Register now (free) for customized features, flight alerts, and more!